sensor_id;sensor_type;location;lat;lon;timestamp;temperature;humidity
47168;DHT22;32931;47.778;17.806;2024-02-28T00:01:24;12.70;99.90
47168;DHT22;32931;47.778;17.806;2024-02-28T00:03:51;12.70;99.90
47168;DHT22;32931;47.778;17.806;2024-02-28T00:06:17;12.70;99.90
47168;DHT22;32931;47.778;17.806;2024-02-28T00:08:44;12.70;99.90
47168;DHT22;32931;47.778;17.806;2024-02-28T00:11:10;12.70;99.90
47168;DHT22;32931;47.778;17.806;2024-02-28T00:13:36;12.70;99.90
47168;DHT22;32931;47.778;17.806;2024-02-28T00:16:02;12.70;99.90
47168;DHT22;32931;47.778;17.806;2024-02-28T00:18:29;12.60;99.90
47168;DHT22;32931;47.778;17.806;2024-02-28T00:20:57;12.70;99.90
47168;DHT22;32931;47.778;17.806;2024-02-28T00:23:23;12.70;99.90
47168;DHT22;32931;47.778;17.806;2024-02-28T00:25:49;12.70;99.90
47168;DHT22;32931;47.778;17.806;2024-02-28T00:28:15;12.70;99.90
47168;DHT22;32931;47.778;17.806;2024-02-28T00:30:41;12.70;99.90
47168;DHT22;32931;47.778;17.806;2024-02-28T00:33:07;12.60;99.90
47168;DHT22;32931;47.778;17.806;2024-02-28T00:35:33;12.70;99.90
47168;DHT22;32931;47.778;17.806;2024-02-28T00:38:00;12.70;99.90
47168;DHT22;32931;47.778;17.806;2024-02-28T00:40:26;12.60;99.90
47168;DHT22;32931;47.778;17.806;2024-02-28T00:42:54;12.60;99.90
47168;DHT22;32931;47.778;17.806;2024-02-28T00:45:21;12.60;99.90
47168;DHT22;32931;47.778;17.806;2024-02-28T00:47:47;12.60;99.90
47168;DHT22;32931;47.778;17.806;2024-02-28T00:50:13;12.60;99.90
47168;DHT22;32931;47.778;17.806;2024-02-28T00:52:40;12.60;99.90
47168;DHT22;32931;47.778;17.806;2024-02-28T00:55:06;12.60;99.90
47168;DHT22;32931;47.778;17.806;2024-02-28T00:57:33;12.60;99.90
47168;DHT22;32931;47.778;17.806;2024-02-28T00:59:59;12.60;99.90
47168;DHT22;32931;47.778;17.806;2024-02-28T01:02:25;12.60;99.90
47168;DHT22;32931;47.778;17.806;2024-02-28T01:04:51;12.60;99.90
47168;DHT22;32931;47.778;17.806;2024-02-28T01:07:17;12.60;99.90
47168;DHT22;32931;47.778;17.806;2024-02-28T01:09:44;12.60;99.90
47168;DHT22;32931;47.778;17.806;2024-02-28T01:12:10;12.50;99.90
47168;DHT22;32931;47.778;17.806;2024-02-28T01:14:36;12.50;99.90
47168;DHT22;32931;47.778;17.806;2024-02-28T01:17:02;12.50;99.90
47168;DHT22;32931;47.778;17.806;2024-02-28T01:19:29;12.50;99.90
47168;DHT22;32931;47.778;17.806;2024-02-28T01:21:55;12.50;99.90
47168;DHT22;32931;47.778;17.806;2024-02-28T01:24:22;12.50;99.90
47168;DHT22;32931;47.778;17.806;2024-02-28T01:26:48;12.50;99.90
47168;DHT22;32931;47.778;17.806;2024-02-28T01:29:14;12.50;99.90
47168;DHT22;32931;47.778;17.806;2024-02-28T01:31:40;12.40;99.90
47168;DHT22;32931;47.778;17.806;2024-02-28T01:34:06;12.40;99.90
47168;DHT22;32931;47.778;17.806;2024-02-28T01:36:32;12.40;99.90
47168;DHT22;32931;47.778;17.806;2024-02-28T01:38:58;12.40;99.90
47168;DHT22;32931;47.778;17.806;2024-02-28T01:41:25;12.40;99.90
47168;DHT22;32931;47.778;17.806;2024-02-28T01:43:51;12.30;99.90
47168;DHT22;32931;47.778;17.806;2024-02-28T01:46:23;12.30;99.90
47168;DHT22;32931;47.778;17.806;2024-02-28T01:48:50;12.30;99.90
47168;DHT22;32931;47.778;17.806;2024-02-28T01:51:16;12.30;99.90
47168;DHT22;32931;47.778;17.806;2024-02-28T01:53:44;12.30;99.90
47168;DHT22;32931;47.778;17.806;2024-02-28T01:56:12;12.30;99.90
47168;DHT22;32931;47.778;17.806;2024-02-28T01:58:39;12.20;99.90
47168;DHT22;32931;47.778;17.806;2024-02-28T02:01:06;12.20;99.90
47168;DHT22;32931;47.778;17.806;2024-02-28T02:03:33;12.10;99.90
47168;DHT22;32931;47.778;17.806;2024-02-28T02:06:03;12.20;99.90
47168;DHT22;32931;47.778;17.806;2024-02-28T02:08:29;12.20;99.90
47168;DHT22;32931;47.778;17.806;2024-02-28T02:10:56;12.20;99.90
47168;DHT22;32931;47.778;17.806;2024-02-28T02:13:22;12.20;99.90
47168;DHT22;32931;47.778;17.806;2024-02-28T02:15:48;12.20;99.90
47168;DHT22;32931;47.778;17.806;2024-02-28T02:18:14;12.30;99.90
47168;DHT22;32931;47.778;17.806;2024-02-28T02:20:44;12.30;99.90
47168;DHT22;32931;47.778;17.806;2024-02-28T02:23:12;12.30;99.90
47168;DHT22;32931;47.778;17.806;2024-02-28T02:25:46;12.30;99.90
47168;DHT22;32931;47.778;17.806;2024-02-28T02:28:13;12.30;99.90
47168;DHT22;32931;47.778;17.806;2024-02-28T02:30:40;12.20;99.90
47168;DHT22;32931;47.778;17.806;2024-02-28T02:33:07;12.20;99.90
47168;DHT22;32931;47.778;17.806;2024-02-28T02:35:34;12.20;99.90
47168;DHT22;32931;47.778;17.806;2024-02-28T02:38:00;12.20;99.90
47168;DHT22;32931;47.778;17.806;2024-02-28T02:40:26;12.20;99.90
47168;DHT22;32931;47.778;17.806;2024-02-28T02:42:52;12.20;99.90
47168;DHT22;32931;47.778;17.806;2024-02-28T02:45:18;12.20;99.90
47168;DHT22;32931;47.778;17.806;2024-02-28T02:47:44;12.20;99.90
47168;DHT22;32931;47.778;17.806;2024-02-28T02:50:11;12.20;99.90
47168;DHT22;32931;47.778;17.806;2024-02-28T02:52:37;12.20;99.90
47168;DHT22;32931;47.778;17.806;2024-02-28T02:55:04;12.20;99.90
47168;DHT22;32931;47.778;17.806;2024-02-28T02:57:31;12.10;99.90
47168;DHT22;32931;47.778;17.806;2024-02-28T02:59:58;12.20;99.90
47168;DHT22;32931;47.778;17.806;2024-02-28T03:02:24;12.10;99.90
47168;DHT22;32931;47.778;17.806;2024-02-28T03:04:50;12.10;99.90
47168;DHT22;32931;47.778;17.806;2024-02-28T03:07:16;12.10;99.90
47168;DHT22;32931;47.778;17.806;2024-02-28T03:09:42;12.10;99.90
47168;DHT22;32931;47.778;17.806;2024-02-28T03:12:08;12.10;99.90
47168;DHT22;32931;47.778;17.806;2024-02-28T03:14:37;12.10;99.90
47168;DHT22;32931;47.778;17.806;2024-02-28T03:17:03;12.20;99.90
47168;DHT22;32931;47.778;17.806;2024-02-28T03:19:29;12.20;99.90
47168;DHT22;32931;47.778;17.806;2024-02-28T03:21:55;12.20;99.90
47168;DHT22;32931;47.778;17.806;2024-02-28T03:24:21;12.20;99.90
47168;DHT22;32931;47.778;17.806;2024-02-28T03:26:48;12.20;99.90
47168;DHT22;32931;47.778;17.806;2024-02-28T03:29:14;12.10;99.90
47168;DHT22;32931;47.778;17.806;2024-02-28T03:31:40;12.10;99.90
47168;DHT22;32931;47.778;17.806;2024-02-28T03:34:06;12.20;99.90
47168;DHT22;32931;47.778;17.806;2024-02-28T03:36:32;12.10;99.90
47168;DHT22;32931;47.778;17.806;2024-02-28T03:38:58;12.10;99.90
47168;DHT22;32931;47.778;17.806;2024-02-28T03:41:24;12.10;99.90
47168;DHT22;32931;47.778;17.806;2024-02-28T03:43:51;12.10;99.90
47168;DHT22;32931;47.778;17.806;2024-02-28T03:46:17;12.10;99.90
47168;DHT22;32931;47.778;17.806;2024-02-28T03:48:43;12.10;99.90
47168;DHT22;32931;47.778;17.806;2024-02-28T03:51:09;12.10;99.90
47168;DHT22;32931;47.778;17.806;2024-02-28T03:53:36;12.10;99.90
47168;DHT22;32931;47.778;17.806;2024-02-28T03:56:03;12.20;99.90
47168;DHT22;32931;47.778;17.806;2024-02-28T03:58:29;12.20;99.90
47168;DHT22;32931;47.778;17.806;2024-02-28T04:00:56;12.10;99.90
47168;DHT22;32931;47.778;17.806;2024-02-28T04:03:22;12.20;99.90
47168;DHT22;32931;47.778;17.806;2024-02-28T04:05:48;12.20;99.90
47168;DHT22;32931;47.778;17.806;2024-02-28T04:08:14;12.10;99.90
47168;DHT22;32931;47.778;17.806;2024-02-28T04:10:40;12.20;99.90
47168;DHT22;32931;47.778;17.806;2024-02-28T04:13:06;12.10;99.90
47168;DHT22;32931;47.778;17.806;2024-02-28T04:15:32;12.20;99.90
47168;DHT22;32931;47.778;17.806;2024-02-28T04:17:59;12.10;99.90
47168;DHT22;32931;47.778;17.806;2024-02-28T04:20:25;12.10;99.90
47168;DHT22;32931;47.778;17.806;2024-02-28T04:22:51;12.10;99.90
47168;DHT22;32931;47.778;17.806;2024-02-28T04:25:17;12.10;99.90
47168;DHT22;32931;47.778;17.806;2024-02-28T04:27:43;12.20;99.90
47168;DHT22;32931;47.778;17.806;2024-02-28T04:30:10;12.10;99.90
47168;DHT22;32931;47.778;17.806;2024-02-28T04:32:36;12.10;99.90
47168;DHT22;32931;47.778;17.806;2024-02-28T04:35:04;12.10;99.90
47168;DHT22;32931;47.778;17.806;2024-02-28T04:37:30;12.20;99.90
47168;DHT22;32931;47.778;17.806;2024-02-28T04:39:56;12.10;99.90
47168;DHT22;32931;47.778;17.806;2024-02-28T04:42:22;12.10;99.90
47168;DHT22;32931;47.778;17.806;2024-02-28T04:44:48;12.10;99.90
47168;DHT22;32931;47.778;17.806;2024-02-28T04:47:14;12.00;99.90
47168;DHT22;32931;47.778;17.806;2024-02-28T04:49:40;12.00;99.90
47168;DHT22;32931;47.778;17.806;2024-02-28T04:52:07;12.00;99.90
47168;DHT22;32931;47.778;17.806;2024-02-28T04:54:33;11.90;99.90
47168;DHT22;32931;47.778;17.806;2024-02-28T04:56:59;11.90;99.90
47168;DHT22;32931;47.778;17.806;2024-02-28T04:59:26;11.80;99.90
47168;DHT22;32931;47.778;17.806;2024-02-28T05:01:52;11.80;99.90
47168;DHT22;32931;47.778;17.806;2024-02-28T05:04:18;11.80;99.90
47168;DHT22;32931;47.778;17.806;2024-02-28T05:06:45;11.80;99.90
47168;DHT22;32931;47.778;17.806;2024-02-28T05:09:11;11.70;99.90
47168;DHT22;32931;47.778;17.806;2024-02-28T05:11:37;11.70;99.90
47168;DHT22;32931;47.778;17.806;2024-02-28T05:14:03;11.70;99.90
47168;DHT22;32931;47.778;17.806;2024-02-28T05:16:29;11.70;99.90
47168;DHT22;32931;47.778;17.806;2024-02-28T05:18:55;11.70;99.90
47168;DHT22;32931;47.778;17.806;2024-02-28T05:21:22;11.60;99.90
47168;DHT22;32931;47.778;17.806;2024-02-28T05:23:48;11.60;99.90
47168;DHT22;32931;47.778;17.806;2024-02-28T05:26:14;11.60;99.90
47168;DHT22;32931;47.778;17.806;2024-02-28T05:28:41;11.60;99.90
47168;DHT22;32931;47.778;17.806;2024-02-28T05:31:23;11.60;99.90
47168;DHT22;32931;47.778;17.806;2024-02-28T05:33:54;11.60;99.90
47168;DHT22;32931;47.778;17.806;2024-02-28T05:36:22;11.50;99.90
47168;DHT22;32931;47.778;17.806;2024-02-28T05:38:48;11.50;99.90
47168;DHT22;32931;47.778;17.806;2024-02-28T05:41:16;11.50;99.90
47168;DHT22;32931;47.778;17.806;2024-02-28T05:43:43;11.50;99.90
47168;DHT22;32931;47.778;17.806;2024-02-28T05:46:09;11.50;99.90
47168;DHT22;32931;47.778;17.806;2024-02-28T05:48:36;11.50;99.90
47168;DHT22;32931;47.778;17.806;2024-02-28T05:51:02;11.50;99.90
47168;DHT22;32931;47.778;17.806;2024-02-28T05:53:29;11.50;99.90
47168;DHT22;32931;47.778;17.806;2024-02-28T05:56:06;11.50;99.90
47168;DHT22;32931;47.778;17.806;2024-02-28T05:58:43;11.50;99.90
47168;DHT22;32931;47.778;17.806;2024-02-28T06:01:10;11.50;99.90
47168;DHT22;32931;47.778;17.806;2024-02-28T06:03:39;11.40;99.90
47168;DHT22;32931;47.778;17.806;2024-02-28T06:06:05;11.40;99.90
47168;DHT22;32931;47.778;17.806;2024-02-28T06:08:38;11.40;99.90
47168;DHT22;32931;47.778;17.806;2024-02-28T06:11:04;11.40;99.90
47168;DHT22;32931;47.778;17.806;2024-02-28T06:13:34;11.40;99.90
47168;DHT22;32931;47.778;17.806;2024-02-28T06:16:00;11.50;99.90
47168;DHT22;32931;47.778;17.806;2024-02-28T06:18:26;11.50;99.90
47168;DHT22;32931;47.778;17.806;2024-02-28T06:20:54;11.50;99.90
47168;DHT22;32931;47.778;17.806;2024-02-28T06:23:21;11.60;99.90
47168;DHT22;32931;47.778;17.806;2024-02-28T06:25:47;11.60;99.90
47168;DHT22;32931;47.778;17.806;2024-02-28T06:28:13;11.60;99.90
47168;DHT22;32931;47.778;17.806;2024-02-28T06:30:40;11.70;99.90
47168;DHT22;32931;47.778;17.806;2024-02-28T06:33:06;11.70;99.90
47168;DHT22;32931;47.778;17.806;2024-02-28T06:35:34;11.70;99.90
47168;DHT22;32931;47.778;17.806;2024-02-28T06:38:01;11.80;99.90
47168;DHT22;32931;47.778;17.806;2024-02-28T06:40:28;11.80;99.90
47168;DHT22;32931;47.778;17.806;2024-02-28T06:42:55;11.80;99.90
47168;DHT22;32931;47.778;17.806;2024-02-28T06:45:21;11.80;99.90
47168;DHT22;32931;47.778;17.806;2024-02-28T06:47:47;11.80;99.90
47168;DHT22;32931;47.778;17.806;2024-02-28T06:50:13;11.90;99.90
47168;DHT22;32931;47.778;17.806;2024-02-28T06:52:41;11.80;99.90
47168;DHT22;32931;47.778;17.806;2024-02-28T06:55:07;11.80;99.90
47168;DHT22;32931;47.778;17.806;2024-02-28T06:57:37;11.90;99.90
47168;DHT22;32931;47.778;17.806;2024-02-28T07:00:06;11.90;99.90
47168;DHT22;32931;47.778;17.806;2024-02-28T07:02:35;11.90;99.90
47168;DHT22;32931;47.778;17.806;2024-02-28T07:05:01;12.00;99.90
47168;DHT22;32931;47.778;17.806;2024-02-28T07:07:29;12.00;99.90
47168;DHT22;32931;47.778;17.806;2024-02-28T07:09:55;12.00;99.90
47168;DHT22;32931;47.778;17.806;2024-02-28T07:12:21;12.00;99.90
47168;DHT22;32931;47.778;17.806;2024-02-28T07:14:47;12.10;99.90
47168;DHT22;32931;47.778;17.806;2024-02-28T07:17:13;12.10;99.90
47168;DHT22;32931;47.778;17.806;2024-02-28T07:19:39;12.10;99.90
47168;DHT22;32931;47.778;17.806;2024-02-28T07:22:05;12.20;99.90
47168;DHT22;32931;47.778;17.806;2024-02-28T07:24:31;12.20;99.90
47168;DHT22;32931;47.778;17.806;2024-02-28T07:26:58;12.30;99.90
47168;DHT22;32931;47.778;17.806;2024-02-28T07:29:24;12.30;99.90
47168;DHT22;32931;47.778;17.806;2024-02-28T07:31:50;12.40;99.90
47168;DHT22;32931;47.778;17.806;2024-02-28T07:34:16;12.40;99.90
47168;DHT22;32931;47.778;17.806;2024-02-28T07:36:42;12.40;99.90
47168;DHT22;32931;47.778;17.806;2024-02-28T07:39:08;12.50;99.90
47168;DHT22;32931;47.778;17.806;2024-02-28T07:41:39;12.60;99.90
47168;DHT22;32931;47.778;17.806;2024-02-28T07:44:07;12.60;99.90
47168;DHT22;32931;47.778;17.806;2024-02-28T07:46:33;12.70;99.90
47168;DHT22;32931;47.778;17.806;2024-02-28T07:49:00;12.80;99.90
47168;DHT22;32931;47.778;17.806;2024-02-28T07:51:27;12.80;99.90
47168;DHT22;32931;47.778;17.806;2024-02-28T07:53:53;12.90;99.90
47168;DHT22;32931;47.778;17.806;2024-02-28T07:56:20;13.00;99.90
47168;DHT22;32931;47.778;17.806;2024-02-28T07:58:47;13.10;99.90
47168;DHT22;32931;47.778;17.806;2024-02-28T08:01:13;13.10;99.90
47168;DHT22;32931;47.778;17.806;2024-02-28T08:03:39;13.20;99.90
47168;DHT22;32931;47.778;17.806;2024-02-28T08:06:06;13.20;99.90
47168;DHT22;32931;47.778;17.806;2024-02-28T08:08:35;13.30;99.90
47168;DHT22;32931;47.778;17.806;2024-02-28T08:11:01;13.30;99.90
47168;DHT22;32931;47.778;17.806;2024-02-28T08:13:27;13.40;99.90
47168;DHT22;32931;47.778;17.806;2024-02-28T08:15:54;13.50;99.90
47168;DHT22;32931;47.778;17.806;2024-02-28T08:18:21;13.50;99.90
47168;DHT22;32931;47.778;17.806;2024-02-28T08:20:47;13.60;99.90
47168;DHT22;32931;47.778;17.806;2024-02-28T08:23:14;13.70;99.90
47168;DHT22;32931;47.778;17.806;2024-02-28T08:25:40;13.80;99.90
47168;DHT22;32931;47.778;17.806;2024-02-28T08:28:06;13.90;99.90
47168;DHT22;32931;47.778;17.806;2024-02-28T08:30:32;14.00;99.90
47168;DHT22;32931;47.778;17.806;2024-02-28T08:32:59;14.10;99.90
47168;DHT22;32931;47.778;17.806;2024-02-28T08:35:26;14.20;99.90
47168;DHT22;32931;47.778;17.806;2024-02-28T08:37:52;14.30;99.90
47168;DHT22;32931;47.778;17.806;2024-02-28T08:40:19;14.40;99.90
47168;DHT22;32931;47.778;17.806;2024-02-28T08:42:45;14.40;99.90
47168;DHT22;32931;47.778;17.806;2024-02-28T08:45:12;14.50;99.90
47168;DHT22;32931;47.778;17.806;2024-02-28T08:47:38;14.60;99.90
47168;DHT22;32931;47.778;17.806;2024-02-28T08:50:04;14.60;99.90
47168;DHT22;32931;47.778;17.806;2024-02-28T08:52:30;14.70;99.90
47168;DHT22;32931;47.778;17.806;2024-02-28T08:54:57;14.80;99.90
47168;DHT22;32931;47.778;17.806;2024-02-28T08:57:23;14.90;99.90
47168;DHT22;32931;47.778;17.806;2024-02-28T08:59:50;15.00;99.90
47168;DHT22;32931;47.778;17.806;2024-02-28T09:02:16;15.10;99.90
47168;DHT22;32931;47.778;17.806;2024-02-28T09:04:42;15.20;99.90
47168;DHT22;32931;47.778;17.806;2024-02-28T09:07:08;15.40;99.90
47168;DHT22;32931;47.778;17.806;2024-02-28T09:09:34;15.50;99.90
47168;DHT22;32931;47.778;17.806;2024-02-28T09:12:03;15.70;99.90
47168;DHT22;32931;47.778;17.806;2024-02-28T09:14:30;15.80;99.90
47168;DHT22;32931;47.778;17.806;2024-02-28T09:16:56;15.90;99.90
47168;DHT22;32931;47.778;17.806;2024-02-28T09:19:32;16.00;99.90
47168;DHT22;32931;47.778;17.806;2024-02-28T09:21:58;16.10;99.90
47168;DHT22;32931;47.778;17.806;2024-02-28T09:24:25;16.20;99.90
47168;DHT22;32931;47.778;17.806;2024-02-28T09:26:51;16.30;99.90
47168;DHT22;32931;47.778;17.806;2024-02-28T09:29:18;16.40;99.90
47168;DHT22;32931;47.778;17.806;2024-02-28T09:31:44;16.50;99.90
47168;DHT22;32931;47.778;17.806;2024-02-28T09:34:10;16.50;99.90
47168;DHT22;32931;47.778;17.806;2024-02-28T09:36:42;16.60;99.90
47168;DHT22;32931;47.778;17.806;2024-02-28T09:39:12;16.70;99.90
47168;DHT22;32931;47.778;17.806;2024-02-28T09:41:39;16.70;99.90
47168;DHT22;32931;47.778;17.806;2024-02-28T09:44:06;16.80;99.90
47168;DHT22;32931;47.778;17.806;2024-02-28T09:46:34;16.80;99.90
47168;DHT22;32931;47.778;17.806;2024-02-28T09:49:04;16.90;99.90
47168;DHT22;32931;47.778;17.806;2024-02-28T09:51:35;17.00;99.90
47168;DHT22;32931;47.778;17.806;2024-02-28T09:54:05;17.10;99.90
47168;DHT22;32931;47.778;17.806;2024-02-28T09:56:32;17.10;99.90
47168;DHT22;32931;47.778;17.806;2024-02-28T09:58:59;17.10;99.90
47168;DHT22;32931;47.778;17.806;2024-02-28T10:01:26;17.10;99.90
47168;DHT22;32931;47.778;17.806;2024-02-28T10:03:53;17.10;99.90
47168;DHT22;32931;47.778;17.806;2024-02-28T10:06:20;17.10;99.90
47168;DHT22;32931;47.778;17.806;2024-02-28T10:08:46;17.10;99.90
47168;DHT22;32931;47.778;17.806;2024-02-28T10:11:20;17.10;99.90
47168;DHT22;32931;47.778;17.806;2024-02-28T10:13:50;17.20;99.90
47168;DHT22;32931;47.778;17.806;2024-02-28T10:16:16;17.20;99.90
47168;DHT22;32931;47.778;17.806;2024-02-28T10:18:45;17.20;99.90
47168;DHT22;32931;47.778;17.806;2024-02-28T10:21:12;17.30;99.90
47168;DHT22;32931;47.778;17.806;2024-02-28T10:23:41;17.30;99.90
47168;DHT22;32931;47.778;17.806;2024-02-28T10:26:11;17.30;99.90
47168;DHT22;32931;47.778;17.806;2024-02-28T10:28:39;17.30;99.90
47168;DHT22;32931;47.778;17.806;2024-02-28T10:31:06;17.30;99.90
47168;DHT22;32931;47.778;17.806;2024-02-28T10:33:33;17.40;99.90
47168;DHT22;32931;47.778;17.806;2024-02-28T10:36:05;17.40;99.90
47168;DHT22;32931;47.778;17.806;2024-02-28T10:38:32;17.40;99.90
47168;DHT22;32931;47.778;17.806;2024-02-28T10:41:06;17.40;99.90
47168;DHT22;32931;47.778;17.806;2024-02-28T10:43:32;17.40;99.90
47168;DHT22;32931;47.778;17.806;2024-02-28T10:46:00;17.40;99.90
47168;DHT22;32931;47.778;17.806;2024-02-28T10:48:27;17.40;99.90
47168;DHT22;32931;47.778;17.806;2024-02-28T10:50:54;17.40;99.90
47168;DHT22;32931;47.778;17.806;2024-02-28T10:53:22;17.50;99.90
47168;DHT22;32931;47.778;17.806;2024-02-28T10:55:49;17.60;99.90
47168;DHT22;32931;47.778;17.806;2024-02-28T10:58:18;17.60;99.90
47168;DHT22;32931;47.778;17.806;2024-02-28T11:00:48;17.70;99.90
47168;DHT22;32931;47.778;17.806;2024-02-28T11:03:17;17.70;99.90
47168;DHT22;32931;47.778;17.806;2024-02-28T11:05:44;17.70;99.90
47168;DHT22;32931;47.778;17.806;2024-02-28T11:08:27;17.70;99.90
47168;DHT22;32931;47.778;17.806;2024-02-28T11:10:57;17.80;99.90
47168;DHT22;32931;47.778;17.806;2024-02-28T11:13:26;17.70;99.90
47168;DHT22;32931;47.778;17.806;2024-02-28T11:15:53;17.80;99.90
47168;DHT22;32931;47.778;17.806;2024-02-28T11:18:21;17.90;99.90
47168;DHT22;32931;47.778;17.806;2024-02-28T11:20:48;17.80;99.90
47168;DHT22;32931;47.778;17.806;2024-02-28T11:23:16;17.90;99.90
47168;DHT22;32931;47.778;17.806;2024-02-28T11:25:43;17.90;99.90
47168;DHT22;32931;47.778;17.806;2024-02-28T11:28:09;17.90;99.90
47168;DHT22;32931;47.778;17.806;2024-02-28T11:30:35;18.00;99.90
47168;DHT22;32931;47.778;17.806;2024-02-28T11:33:02;18.00;99.90
47168;DHT22;32931;47.778;17.806;2024-02-28T11:35:28;18.10;99.80
47168;DHT22;32931;47.778;17.806;2024-02-28T11:37:55;18.10;99.40
47168;DHT22;32931;47.778;17.806;2024-02-28T11:40:24;18.20;99.90
47168;DHT22;32931;47.778;17.806;2024-02-28T11:42:56;18.20;99.90
47168;DHT22;32931;47.778;17.806;2024-02-28T11:45:25;18.20;99.70
47168;DHT22;32931;47.778;17.806;2024-02-28T11:47:51;18.20;99.70
47168;DHT22;32931;47.778;17.806;2024-02-28T11:50:17;18.30;99.70
47168;DHT22;32931;47.778;17.806;2024-02-28T11:52:45;18.40;99.80
47168;DHT22;32931;47.778;17.806;2024-02-28T11:55:11;18.40;99.70
47168;DHT22;32931;47.778;17.806;2024-02-28T11:57:37;18.40;99.10
47168;DHT22;32931;47.778;17.806;2024-02-28T12:00:08;18.40;99.20
47168;DHT22;32931;47.778;17.806;2024-02-28T12:02:35;18.40;98.70
47168;DHT22;32931;47.778;17.806;2024-02-28T12:05:05;18.30;98.80
47168;DHT22;32931;47.778;17.806;2024-02-28T12:07:32;18.40;98.60
47168;DHT22;32931;47.778;17.806;2024-02-28T12:09:59;18.40;98.70
47168;DHT22;32931;47.778;17.806;2024-02-28T12:12:27;18.30;98.50
47168;DHT22;32931;47.778;17.806;2024-02-28T12:15:00;18.40;98.60
47168;DHT22;32931;47.778;17.806;2024-02-28T12:17:29;18.50;98.90
47168;DHT22;32931;47.778;17.806;2024-02-28T12:19:55;18.60;98.90
47168;DHT22;32931;47.778;17.806;2024-02-28T12:22:21;18.70;98.70
47168;DHT22;32931;47.778;17.806;2024-02-28T12:24:47;18.80;98.90
47168;DHT22;32931;47.778;17.806;2024-02-28T12:27:14;18.90;98.80
47168;DHT22;32931;47.778;17.806;2024-02-28T12:29:40;19.00;98.60
47168;DHT22;32931;47.778;17.806;2024-02-28T12:32:07;19.00;98.50
47168;DHT22;32931;47.778;17.806;2024-02-28T12:34:34;19.10;98.40
47168;DHT22;32931;47.778;17.806;2024-02-28T12:37:01;19.10;98.20
47168;DHT22;32931;47.778;17.806;2024-02-28T12:39:28;19.20;97.90
47168;DHT22;32931;47.778;17.806;2024-02-28T12:41:54;19.30;97.90
47168;DHT22;32931;47.778;17.806;2024-02-28T12:44:20;19.30;97.90
47168;DHT22;32931;47.778;17.806;2024-02-28T12:46:46;19.40;97.50
47168;DHT22;32931;47.778;17.806;2024-02-28T12:49:13;19.60;97.60
47168;DHT22;32931;47.778;17.806;2024-02-28T12:51:43;19.60;97.20
47168;DHT22;32931;47.778;17.806;2024-02-28T12:54:11;19.80;96.50
47168;DHT22;32931;47.778;17.806;2024-02-28T12:56:39;19.90;96.90
47168;DHT22;32931;47.778;17.806;2024-02-28T12:59:06;19.90;96.20
47168;DHT22;32931;47.778;17.806;2024-02-28T13:01:35;19.90;95.40
47168;DHT22;32931;47.778;17.806;2024-02-28T13:04:02;19.80;95.20
47168;DHT22;32931;47.778;17.806;2024-02-28T13:06:28;19.80;95.10
47168;DHT22;32931;47.778;17.806;2024-02-28T13:08:55;19.80;94.90
47168;DHT22;32931;47.778;17.806;2024-02-28T13:11:24;19.80;95.10
47168;DHT22;32931;47.778;17.806;2024-02-28T13:13:52;19.90;95.10
47168;DHT22;32931;47.778;17.806;2024-02-28T13:16:19;19.90;95.10
47168;DHT22;32931;47.778;17.806;2024-02-28T13:18:46;20.00;95.00
47168;DHT22;32931;47.778;17.806;2024-02-28T13:21:12;19.90;94.80
47168;DHT22;32931;47.778;17.806;2024-02-28T13:23:38;20.00;94.90
47168;DHT22;32931;47.778;17.806;2024-02-28T13:26:05;20.10;95.00
47168;DHT22;32931;47.778;17.806;2024-02-28T13:28:33;20.30;95.20
47168;DHT22;32931;47.778;17.806;2024-02-28T13:31:00;20.50;94.80
47168;DHT22;32931;47.778;17.806;2024-02-28T13:33:27;20.50;94.70
47168;DHT22;32931;47.778;17.806;2024-02-28T13:35:53;20.70;94.70
47168;DHT22;32931;47.778;17.806;2024-02-28T13:38:20;20.80;94.50
47168;DHT22;32931;47.778;17.806;2024-02-28T13:40:48;20.80;94.40
47168;DHT22;32931;47.778;17.806;2024-02-28T13:43:14;20.80;94.10
47168;DHT22;32931;47.778;17.806;2024-02-28T13:45:46;20.80;94.20
47168;DHT22;32931;47.778;17.806;2024-02-28T13:48:19;20.80;93.90
47168;DHT22;32931;47.778;17.806;2024-02-28T13:50:51;20.80;93.20
47168;DHT22;32931;47.778;17.806;2024-02-28T13:53:17;20.80;93.80
47168;DHT22;32931;47.778;17.806;2024-02-28T13:55:44;20.80;93.60
47168;DHT22;32931;47.778;17.806;2024-02-28T13:58:14;20.80;93.40
47168;DHT22;32931;47.778;17.806;2024-02-28T14:00:44;20.80;93.60
47168;DHT22;32931;47.778;17.806;2024-02-28T14:03:14;20.80;93.50
47168;DHT22;32931;47.778;17.806;2024-02-28T14:05:40;20.80;93.30
47168;DHT22;32931;47.778;17.806;2024-02-28T14:08:06;20.80;93.20
47168;DHT22;32931;47.778;17.806;2024-02-28T14:10:38;20.80;93.40
47168;DHT22;32931;47.778;17.806;2024-02-28T14:13:05;20.90;93.50
47168;DHT22;32931;47.778;17.806;2024-02-28T14:15:31;20.90;93.50
47168;DHT22;32931;47.778;17.806;2024-02-28T14:17:58;20.90;93.40
47168;DHT22;32931;47.778;17.806;2024-02-28T14:20:24;21.00;93.30
47168;DHT22;32931;47.778;17.806;2024-02-28T14:22:50;20.90;93.20
47168;DHT22;32931;47.778;17.806;2024-02-28T14:25:17;20.90;92.90
47168;DHT22;32931;47.778;17.806;2024-02-28T14:27:45;20.90;92.90
47168;DHT22;32931;47.778;17.806;2024-02-28T14:30:12;20.90;92.60
47168;DHT22;32931;47.778;17.806;2024-02-28T14:32:39;20.90;92.90
47168;DHT22;32931;47.778;17.806;2024-02-28T14:35:06;21.00;92.90
47168;DHT22;32931;47.778;17.806;2024-02-28T14:37:34;21.10;92.90
47168;DHT22;32931;47.778;17.806;2024-02-28T14:40:01;21.20;93.00
47168;DHT22;32931;47.778;17.806;2024-02-28T14:42:30;21.40;92.90
47168;DHT22;32931;47.778;17.806;2024-02-28T14:44:56;21.50;92.50
47168;DHT22;32931;47.778;17.806;2024-02-28T14:47:22;21.60;92.40
47168;DHT22;32931;47.778;17.806;2024-02-28T14:49:48;21.60;92.10
47168;DHT22;32931;47.778;17.806;2024-02-28T14:52:15;21.50;92.10
47168;DHT22;32931;47.778;17.806;2024-02-28T14:54:41;21.30;92.40
47168;DHT22;32931;47.778;17.806;2024-02-28T14:57:10;21.10;92.50
47168;DHT22;32931;47.778;17.806;2024-02-28T14:59:36;20.80;92.70
47168;DHT22;32931;47.778;17.806;2024-02-28T15:02:02;20.60;93.00
47168;DHT22;32931;47.778;17.806;2024-02-28T15:04:29;20.30;93.20
47168;DHT22;32931;47.778;17.806;2024-02-28T15:06:55;20.00;93.40
47168;DHT22;32931;47.778;17.806;2024-02-28T15:09:21;19.80;93.60
47168;DHT22;32931;47.778;17.806;2024-02-28T15:11:48;19.70;93.70
47168;DHT22;32931;47.778;17.806;2024-02-28T15:14:15;19.40;93.80